Nearby METAR Reports

 

KCOQ - Cloquet, Minnesota, USA
Distance from station: S 10mi, 16km
Updated: Thu, 29-Feb-2024 9:35pm CST
Clear
Clear
 Wind from E
Wind: E 10 mph , 17 km/h, Gust: 16 mph , 26 km/h
Temperature: 21°F , -6°C
Wind Chill: 10°F , -12°C
Dew Point: 12°F , -11°C
Humidity: 68%
Barometer: 29.94 inHg , 1013.9 hPa
Clouds: Clear
Visibility: 10 miles , 16 km
2024/03/01 03:35 KCOQ 010335Z AUTO 10009G14KT 10SM CLR M06/M11 A2994 RMK AO2 TSNO
KDLH - Duluth, Minnesota, USA
Distance from station: E 13mi, 20km
Updated: Thu, 29-Feb-2024 8:55pm CST
Clear
Clear
 Wind from ESE
Wind: ESE 20 mph , 31 km/h, Gust: 28 mph , 44 km/h
Temperature: 21°F , -6°C
Wind Chill: 6°F , -14°C
Dew Point: 14°F , -10°C
Humidity: 74%
Barometer: 29.96 inHg , 1014.6 hPa
Clouds: Clear
Visibility: 10 miles , 16 km
2024/03/01 02:55 KDLH 010255Z 11017G24KT 10SM CLR M06/M10 A2996 RMK AO2 SLP178 T10561100 58017
 
KSUW - Superior, Wisconsin, USA
Distance from station: ESE 21mi, 33km
Updated: Thu, 29-Feb-2024 9:35pm CST
Clear
Clear
 Wind from E
Wind: E 12 mph , 19 km/h, Gust: 17 mph , 28 km/h
Temperature: 25°F , -4°C
Wind Chill: 14°F , -10°C
Dew Point: 14°F , -10°C
Humidity: 63%
Barometer: 30.01 inHg , 1016.3 hPa
Clouds: Clear
Visibility: 10 miles , 16 km
2024/03/01 03:35 KSUW 010335Z AUTO 08010G15KT 10SM CLR M04/M10 A3001 RMK AO2 T10431100
KDYT - Duluth (sky Harb, Minnesota, USA
Distance from station: ESE 22mi, 36km
Updated: Thu, 29-Feb-2024 9:35pm CST
Mostly cloudy
Mostly cloudy
 Wind from E
Wind: E 15 mph , 24 km/h
Temperature: 27°F , -3°C
Wind Chill: 15°F , -9°C
Dew Point: 19°F , -7°C
Humidity: 74%
Barometer: 30.01 inHg , 1016.3 hPa
Clouds: Mostly cloudy
Visibility: 10 miles , 16 km
Cloud details: Mostly cloudy 3900 ft
2024/03/01 03:35 KDYT 010335Z AUTO 08013KT 10SM BKN039 M03/M07 A3001 RMK AO2
 
KTWM - Two Harbors, Minnesota, USA
Distance from station: ENE 36mi, 58km
Updated: Thu, 29-Feb-2024 9:35pm CST
Clear
Clear
 Wind from ENE
Wind: ENE 8 mph , 13 km/h
Temperature: 23°F , -5°C
Wind Chill: 14°F , -10°C
Dew Point: 18°F , -8°C
Humidity: 80%
Barometer: 29.99 inHg , 1015.6 hPa
Clouds: Clear
Visibility: 10 miles , 16 km
2024/03/01 03:35 KTWM 010335Z AUTO 07007KT 10SM CLR M05/M08 A2999 RMK AO2
KEVM - Eveleth Muni, Minnesota, USA
Distance from station: N 39mi, 63km
Updated: Thu, 29-Feb-2024 9:41pm CST
Clear
Clear
 Wind from E
Wind: E 3 mph , 6 km/h
Temperature: 18°F , -8°C
Dew Point: 12°F , -11°C
Humidity: 79%
Barometer: 29.95 inHg , 1014.2 hPa
Clouds: Clear
Visibility: 10 miles , 16 km
2024/03/01 03:41 KEVM 010341Z AUTO 08003KT 10SM CLR M08/M11 A2995 RMK AO2
 
KHIB - Hibbing, Minnesota, USA
Distance from station: NNW 41mi, 66km
Updated: Thu, 29-Feb-2024 8:53pm CST
Clear
Clear
 Wind from ESE
Wind: ESE 8 mph , 13 km/h
Temperature: 18°F , -8°C
Wind Chill: 8°F , -13°C
Dew Point: 7°F , -14°C
Humidity: 62%
Barometer: 29.95 inHg , 1014.2 hPa
Clouds: Clear
Visibility: 10 miles , 16 km
2024/03/01 02:53 KHIB 010253Z AUTO 12007KT 10SM CLR M08/M14 A2995 RMK AO2 SLP175 T10831139 58013
KHZX - Mcgregor/Iverson, Minnesota, USA
Distance from station: WSW 43mi, 69km
Updated: Thu, 29-Feb-2024 9:35pm CST
Clear
Clear
 Wind from E
Wind: E 5 mph , 7 km/h
Temperature: 23°F , -5°C
Wind Chill: 17°F , -8°C
Dew Point: 12°F , -11°C
Humidity: 63%
Barometer: 29.92 inHg , 1013.2 hPa
Clouds: Clear
Visibility: 10 miles , 16 km
2024/03/01 03:35 KHZX 010335Z AUTO 08004KT 10SM CLR M05/M11 A2992 RMK AO2
 
KOLG - Solon Springs, Wisconsin, USA
Distance from station: SE 48mi, 77km
Updated: Thu, 29-Feb-2024 9:35pm CST
Clear
Clear
 Wind from NNE
Wind: NNE 7 mph , 11 km/h
Temperature: 19°F , -7°C
Wind Chill: 10°F , -12°C
Dew Point: 9°F , -13°C
Humidity: 63%
Barometer: 29.96 inHg , 1014.6 hPa
Clouds: Clear
Visibility: 10 miles , 16 km
2024/03/01 03:35 KOLG 010335Z AUTO 03006KT 10SM CLR M07/M13 A2996 RMK AO1